Norfolk, Virginia
Traffic Map
Current Weather Conditions
Norfolk, Virginia
Clear
Clear
85°
Feels Like: 87°
Wind Chill: 85° Ceiling: Unl
Heat Index: 87° Visibility: 10mi
Dew Point: 65° Wind: 13mph
Humidity: 51% Direction: 200° (SSW)
Pressure: 30.07in Gusts: 0mph
Raw Report DataKORF 302251Z 20011KT 10SM CLR 29/18 A3007 RMK AO2 SLP182 T02940183
Traffic Incident Summary
Active as of:
Severity:
Category:
InformationThere was an issue retrieving the traffic information for this location. Please try a different location or try again shortly.
Advertisements
Track Severe Weather on mobile